sensor_id;sensor_type;location;lat;lon;timestamp;P1;durP1;ratioP1;P2;durP2;ratioP2
19780;SDS011;10050;55.492;13.506;2023-06-24T00:01:28;6.47;;;5.67;;
19780;SDS011;10050;55.492;13.506;2023-06-24T00:03:56;5.70;;;5.10;;
19780;SDS011;10050;55.492;13.506;2023-06-24T00:06:22;8.37;;;6.10;;
19780;SDS011;10050;55.492;13.506;2023-06-24T00:08:51;6.73;;;5.63;;
19780;SDS011;10050;55.492;13.506;2023-06-24T00:11:17;6.53;;;5.20;;
19780;SDS011;10050;55.492;13.506;2023-06-24T00:13:43;6.30;;;5.30;;
19780;SDS011;10050;55.492;13.506;2023-06-24T00:16:10;7.37;;;5.43;;
19780;SDS011;10050;55.492;13.506;2023-06-24T00:18:36;6.70;;;5.33;;
19780;SDS011;10050;55.492;13.506;2023-06-24T00:21:06;6.03;;;5.40;;
19780;SDS011;10050;55.492;13.506;2023-06-24T00:23:32;6.33;;;5.73;;
19780;SDS011;10050;55.492;13.506;2023-06-24T00:26:01;10.57;;;5.90;;
19780;SDS011;10050;55.492;13.506;2023-06-24T00:28:27;7.50;;;6.07;;
19780;SDS011;10050;55.492;13.506;2023-06-24T00:30:53;6.67;;;5.97;;
19780;SDS011;10050;55.492;13.506;2023-06-24T00:33:18;5.57;;;5.00;;
19780;SDS011;10050;55.492;13.506;2023-06-24T00:35:45;8.20;;;6.00;;
19780;SDS011;10050;55.492;13.506;2023-06-24T00:38:11;6.20;;;5.30;;
19780;SDS011;10050;55.492;13.506;2023-06-24T00:40:37;6.80;;;5.77;;
19780;SDS011;10050;55.492;13.506;2023-06-24T00:43:06;6.67;;;5.63;;
19780;SDS011;10050;55.492;13.506;2023-06-24T00:45:33;8.43;;;5.63;;
19780;SDS011;10050;55.492;13.506;2023-06-24T00:48:02;6.17;;;5.63;;
19780;SDS011;10050;55.492;13.506;2023-06-24T00:50:28;6.13;;;5.53;;
19780;SDS011;10050;55.492;13.506;2023-06-24T00:52:54;6.57;;;5.60;;
19780;SDS011;10050;55.492;13.506;2023-06-24T00:55:20;7.07;;;5.60;;
19780;SDS011;10050;55.492;13.506;2023-06-24T00:57:46;8.10;;;5.70;;
19780;SDS011;10050;55.492;13.506;2023-06-24T01:00:17;7.07;;;6.37;;
19780;SDS011;10050;55.492;13.506;2023-06-24T01:02:46;7.47;;;5.90;;
19780;SDS011;10050;55.492;13.506;2023-06-24T01:05:15;9.07;;;5.83;;
19780;SDS011;10050;55.492;13.506;2023-06-24T01:07:42;7.33;;;5.70;;
19780;SDS011;10050;55.492;13.506;2023-06-24T01:10:08;8.27;;;6.07;;
19780;SDS011;10050;55.492;13.506;2023-06-24T01:12:35;6.00;;;5.40;;
19780;SDS011;10050;55.492;13.506;2023-06-24T01:15:08;9.27;;;6.47;;
19780;SDS011;10050;55.492;13.506;2023-06-24T01:17:36;7.20;;;5.63;;
19780;SDS011;10050;55.492;13.506;2023-06-24T01:31:31;7.97;;;5.93;;
19780;SDS011;10050;55.492;13.506;2023-06-24T01:36:55;6.43;;;5.63;;
19780;SDS011;10050;55.492;13.506;2023-06-24T01:39:38;8.07;;;6.47;;
19780;SDS011;10050;55.492;13.506;2023-06-24T01:42:13;5.93;;;5.33;;
19780;SDS011;10050;55.492;13.506;2023-06-24T01:44:41;6.40;;;5.73;;
19780;SDS011;10050;55.492;13.506;2023-06-24T01:47:08;5.77;;;5.00;;
19780;SDS011;10050;55.492;13.506;2023-06-24T01:49:38;6.53;;;5.80;;
19780;SDS011;10050;55.492;13.506;2023-06-24T01:52:07;5.47;;;4.77;;
19780;SDS011;10050;55.492;13.506;2023-06-24T01:54:38;10.50;;;6.20;;
19780;SDS011;10050;55.492;13.506;2023-06-24T01:57:07;7.33;;;5.63;;
19780;SDS011;10050;55.492;13.506;2023-06-24T01:59:35;6.30;;;5.70;;
19780;SDS011;10050;55.492;13.506;2023-06-24T02:02:05;6.20;;;5.50;;
19780;SDS011;10050;55.492;13.506;2023-06-24T02:04:32;6.73;;;5.80;;
19780;SDS011;10050;55.492;13.506;2023-06-24T02:07:02;6.97;;;5.23;;
19780;SDS011;10050;55.492;13.506;2023-06-24T02:09:29;6.10;;;5.50;;
19780;SDS011;10050;55.492;13.506;2023-06-24T02:11:56;5.73;;;5.23;;
19780;SDS011;10050;55.492;13.506;2023-06-24T02:14:23;9.70;;;6.70;;
19780;SDS011;10050;55.492;13.506;2023-06-24T02:16:52;6.47;;;5.80;;
19780;SDS011;10050;55.492;13.506;2023-06-24T02:19:24;8.13;;;5.90;;
19780;SDS011;10050;55.492;13.506;2023-06-24T02:21:53;7.30;;;6.37;;
19780;SDS011;10050;55.492;13.506;2023-06-24T02:24:21;6.33;;;5.73;;
19780;SDS011;10050;55.492;13.506;2023-06-24T02:26:46;7.37;;;5.70;;
19780;SDS011;10050;55.492;13.506;2023-06-24T02:29:13;6.60;;;5.77;;
19780;SDS011;10050;55.492;13.506;2023-06-24T02:31:39;6.83;;;5.50;;
19780;SDS011;10050;55.492;13.506;2023-06-24T02:34:05;9.03;;;6.30;;
19780;SDS011;10050;55.492;13.506;2023-06-24T02:36:31;6.53;;;5.93;;
19780;SDS011;10050;55.492;13.506;2023-06-24T02:38:56;7.07;;;6.07;;
19780;SDS011;10050;55.492;13.506;2023-06-24T02:41:22;7.63;;;6.63;;
19780;SDS011;10050;55.492;13.506;2023-06-24T02:43:48;7.17;;;5.70;;
19780;SDS011;10050;55.492;13.506;2023-06-24T02:46:14;7.10;;;6.40;;
19780;SDS011;10050;55.492;13.506;2023-06-24T02:48:40;7.40;;;6.23;;
19780;SDS011;10050;55.492;13.506;2023-06-24T02:51:07;8.90;;;6.40;;
19780;SDS011;10050;55.492;13.506;2023-06-24T02:53:35;9.20;;;8.00;;
19780;SDS011;10050;55.492;13.506;2023-06-24T02:56:03;8.60;;;6.80;;
19780;SDS011;10050;55.492;13.506;2023-06-24T02:58:30;12.27;;;10.07;;
19780;SDS011;10050;55.492;13.506;2023-06-24T03:01:00;9.13;;;7.63;;
19780;SDS011;10050;55.492;13.506;2023-06-24T03:03:27;7.40;;;6.20;;
19780;SDS011;10050;55.492;13.506;2023-06-24T03:05:54;9.07;;;6.93;;
19780;SDS011;10050;55.492;13.506;2023-06-24T03:08:23;10.00;;;6.53;;
19780;SDS011;10050;55.492;13.506;2023-06-24T03:10:50;9.80;;;7.33;;
19780;SDS011;10050;55.492;13.506;2023-06-24T03:13:16;8.97;;;7.47;;
19780;SDS011;10050;55.492;13.506;2023-06-24T03:15:42;8.53;;;7.57;;
19780;SDS011;10050;55.492;13.506;2023-06-24T03:18:07;8.83;;;7.30;;
19780;SDS011;10050;55.492;13.506;2023-06-24T03:20:33;11.60;;;7.27;;
19780;SDS011;10050;55.492;13.506;2023-06-24T03:23:04;8.80;;;7.90;;
19780;SDS011;10050;55.492;13.506;2023-06-24T03:25:31;8.50;;;7.07;;
19780;SDS011;10050;55.492;13.506;2023-06-24T03:27:57;9.13;;;7.43;;
19780;SDS011;10050;55.492;13.506;2023-06-24T03:30:23;7.80;;;6.43;;
19780;SDS011;10050;55.492;13.506;2023-06-24T03:32:49;8.40;;;7.60;;
19780;SDS011;10050;55.492;13.506;2023-06-24T03:35:15;7.83;;;7.03;;
19780;SDS011;10050;55.492;13.506;2023-06-24T03:37:40;9.10;;;7.43;;
19780;SDS011;10050;55.492;13.506;2023-06-24T03:40:06;9.00;;;7.00;;
19780;SDS011;10050;55.492;13.506;2023-06-24T03:42:33;8.43;;;7.17;;
19780;SDS011;10050;55.492;13.506;2023-06-24T03:44:59;10.23;;;7.60;;
19780;SDS011;10050;55.492;13.506;2023-06-24T03:47:24;9.17;;;7.40;;
19780;SDS011;10050;55.492;13.506;2023-06-24T03:49:50;10.37;;;7.67;;
19780;SDS011;10050;55.492;13.506;2023-06-24T03:52:16;9.87;;;7.83;;
19780;SDS011;10050;55.492;13.506;2023-06-24T03:54:42;8.57;;;6.80;;
19780;SDS011;10050;55.492;13.506;2023-06-24T03:57:08;9.00;;;7.67;;
19780;SDS011;10050;55.492;13.506;2023-06-24T03:59:34;12.40;;;8.03;;
19780;SDS011;10050;55.492;13.506;2023-06-24T04:01:59;10.90;;;7.80;;
19780;SDS011;10050;55.492;13.506;2023-06-24T04:04:25;8.07;;;7.27;;
19780;SDS011;10050;55.492;13.506;2023-06-24T04:06:51;9.47;;;7.50;;
19780;SDS011;10050;55.492;13.506;2023-06-24T04:09:17;8.53;;;7.50;;
19780;SDS011;10050;55.492;13.506;2023-06-24T04:11:42;10.03;;;7.80;;
19780;SDS011;10050;55.492;13.506;2023-06-24T04:14:08;9.17;;;7.73;;
19780;SDS011;10050;55.492;13.506;2023-06-24T04:16:34;11.23;;;8.03;;
19780;SDS011;10050;55.492;13.506;2023-06-24T04:19:00;12.63;;;7.40;;
19780;SDS011;10050;55.492;13.506;2023-06-24T04:21:26;9.27;;;7.30;;
19780;SDS011;10050;55.492;13.506;2023-06-24T04:23:52;9.80;;;6.87;;
19780;SDS011;10050;55.492;13.506;2023-06-24T04:26:18;8.07;;;7.20;;
19780;SDS011;10050;55.492;13.506;2023-06-24T04:28:43;12.03;;;7.93;;
19780;SDS011;10050;55.492;13.506;2023-06-24T04:31:09;10.20;;;7.87;;
19780;SDS011;10050;55.492;13.506;2023-06-24T04:33:35;8.10;;;7.27;;
19780;SDS011;10050;55.492;13.506;2023-06-24T04:36:00;10.23;;;7.80;;
19780;SDS011;10050;55.492;13.506;2023-06-24T04:38:26;8.47;;;7.00;;
19780;SDS011;10050;55.492;13.506;2023-06-24T04:40:52;11.10;;;6.97;;
19780;SDS011;10050;55.492;13.506;2023-06-24T04:43:18;7.73;;;7.03;;
19780;SDS011;10050;55.492;13.506;2023-06-24T04:45:43;8.23;;;6.87;;
19780;SDS011;10050;55.492;13.506;2023-06-24T04:48:09;10.60;;;7.63;;
19780;SDS011;10050;55.492;13.506;2023-06-24T04:50:35;8.43;;;7.57;;
19780;SDS011;10050;55.492;13.506;2023-06-24T04:53:00;10.37;;;6.87;;
19780;SDS011;10050;55.492;13.506;2023-06-24T04:55:27;9.97;;;6.97;;
19780;SDS011;10050;55.492;13.506;2023-06-24T04:57:55;9.30;;;6.93;;
19780;SDS011;10050;55.492;13.506;2023-06-24T05:00:20;8.53;;;7.00;;
19780;SDS011;10050;55.492;13.506;2023-06-24T05:02:49;11.50;;;7.13;;
19780;SDS011;10050;55.492;13.506;2023-06-24T05:05:15;8.23;;;7.17;;
19780;SDS011;10050;55.492;13.506;2023-06-24T05:07:40;8.50;;;7.00;;
19780;SDS011;10050;55.492;13.506;2023-06-24T05:10:06;10.27;;;7.23;;
19780;SDS011;10050;55.492;13.506;2023-06-24T05:12:32;9.00;;;6.83;;
19780;SDS011;10050;55.492;13.506;2023-06-24T05:14:57;9.70;;;6.87;;
19780;SDS011;10050;55.492;13.506;2023-06-24T05:17:23;6.80;;;6.13;;
19780;SDS011;10050;55.492;13.506;2023-06-24T05:19:48;6.40;;;5.77;;
19780;SDS011;10050;55.492;13.506;2023-06-24T05:22:14;10.37;;;6.23;;
19780;SDS011;10050;55.492;13.506;2023-06-24T05:24:39;8.07;;;6.40;;
19780;SDS011;10050;55.492;13.506;2023-06-24T05:27:06;5.87;;;5.27;;
19780;SDS011;10050;55.492;13.506;2023-06-24T05:29:32;8.67;;;6.03;;
19780;SDS011;10050;55.492;13.506;2023-06-24T05:31:58;7.93;;;6.00;;
19780;SDS011;10050;55.492;13.506;2023-06-24T05:34:24;7.27;;;5.30;;
19780;SDS011;10050;55.492;13.506;2023-06-24T05:36:50;7.20;;;6.10;;
19780;SDS011;10050;55.492;13.506;2023-06-24T05:39:16;6.13;;;5.50;;
19780;SDS011;10050;55.492;13.506;2023-06-24T05:41:42;6.53;;;5.47;;
19780;SDS011;10050;55.492;13.506;2023-06-24T05:44:08;7.07;;;5.40;;
19780;SDS011;10050;55.492;13.506;2023-06-24T05:46:35;6.90;;;6.07;;
19780;SDS011;10050;55.492;13.506;2023-06-24T05:49:01;6.33;;;5.73;;
19780;SDS011;10050;55.492;13.506;2023-06-24T05:51:27;6.17;;;5.57;;
19780;SDS011;10050;55.492;13.506;2023-06-24T05:53:53;6.70;;;5.27;;
19780;SDS011;10050;55.492;13.506;2023-06-24T05:56:19;6.03;;;5.20;;
19780;SDS011;10050;55.492;13.506;2023-06-24T05:58:46;7.13;;;5.83;;
19780;SDS011;10050;55.492;13.506;2023-06-24T06:01:13;6.67;;;5.20;;
19780;SDS011;10050;55.492;13.506;2023-06-24T06:03:39;6.37;;;5.20;;
19780;SDS011;10050;55.492;13.506;2023-06-24T06:06:04;6.53;;;5.47;;
19780;SDS011;10050;55.492;13.506;2023-06-24T06:08:30;6.97;;;6.03;;
19780;SDS011;10050;55.492;13.506;2023-06-24T06:10:56;8.97;;;5.60;;
19780;SDS011;10050;55.492;13.506;2023-06-24T06:13:22;8.57;;;5.70;;
19780;SDS011;10050;55.492;13.506;2023-06-24T06:15:47;7.27;;;5.33;;
19780;SDS011;10050;55.492;13.506;2023-06-24T06:18:13;9.23;;;4.93;;
19780;SDS011;10050;55.492;13.506;2023-06-24T06:20:38;6.30;;;5.47;;
19780;SDS011;10050;55.492;13.506;2023-06-24T06:23:04;5.43;;;4.93;;
19780;SDS011;10050;55.492;13.506;2023-06-24T06:25:29;6.20;;;5.60;;
19780;SDS011;10050;55.492;13.506;2023-06-24T06:27:55;5.90;;;5.40;;
19780;SDS011;10050;55.492;13.506;2023-06-24T06:30:21;6.83;;;5.63;;
19780;SDS011;10050;55.492;13.506;2023-06-24T06:32:46;6.10;;;5.43;;
19780;SDS011;10050;55.492;13.506;2023-06-24T06:35:12;7.20;;;5.20;;
19780;SDS011;10050;55.492;13.506;2023-06-24T06:37:38;7.40;;;4.70;;
19780;SDS011;10050;55.492;13.506;2023-06-24T06:40:03;7.27;;;5.80;;
19780;SDS011;10050;55.492;13.506;2023-06-24T06:42:30;7.00;;;5.63;;
19780;SDS011;10050;55.492;13.506;2023-06-24T06:44:55;6.17;;;5.27;;
19780;SDS011;10050;55.492;13.506;2023-06-24T06:47:22;5.90;;;4.70;;
19780;SDS011;10050;55.492;13.506;2023-06-24T06:49:48;7.57;;;5.20;;
19780;SDS011;10050;55.492;13.506;2023-06-24T06:52:14;5.50;;;5.00;;
19780;SDS011;10050;55.492;13.506;2023-06-24T06:54:39;9.57;;;5.70;;
19780;SDS011;10050;55.492;13.506;2023-06-24T06:57:05;5.77;;;5.13;;
19780;SDS011;10050;55.492;13.506;2023-06-24T06:59:31;5.80;;;5.27;;
19780;SDS011;10050;55.492;13.506;2023-06-24T07:01:57;6.40;;;5.33;;
19780;SDS011;10050;55.492;13.506;2023-06-24T07:04:22;6.17;;;4.93;;
19780;SDS011;10050;55.492;13.506;2023-06-24T07:06:48;6.97;;;5.27;;
19780;SDS011;10050;55.492;13.506;2023-06-24T07:09:14;5.30;;;4.70;;
19780;SDS011;10050;55.492;13.506;2023-06-24T07:11:40;6.47;;;5.40;;
19780;SDS011;10050;55.492;13.506;2023-06-24T07:14:06;6.43;;;4.97;;
19780;SDS011;10050;55.492;13.506;2023-06-24T07:16:32;6.80;;;5.00;;
19780;SDS011;10050;55.492;13.506;2023-06-24T07:18:57;5.30;;;4.80;;
19780;SDS011;10050;55.492;13.506;2023-06-24T07:21:23;9.57;;;4.70;;
19780;SDS011;10050;55.492;13.506;2023-06-24T07:23:49;5.37;;;4.87;;
19780;SDS011;10050;55.492;13.506;2023-06-24T07:26:14;5.47;;;4.67;;
19780;SDS011;10050;55.492;13.506;2023-06-24T07:28:40;5.40;;;4.40;;
19780;SDS011;10050;55.492;13.506;2023-06-24T07:31:06;7.60;;;4.70;;
19780;SDS011;10050;55.492;13.506;2023-06-24T07:33:31;5.53;;;4.70;;
19780;SDS011;10050;55.492;13.506;2023-06-24T07:35:57;7.93;;;4.90;;
19780;SDS011;10050;55.492;13.506;2023-06-24T07:38:22;6.87;;;4.57;;
19780;SDS011;10050;55.492;13.506;2023-06-24T07:40:48;5.17;;;4.23;;
19780;SDS011;10050;55.492;13.506;2023-06-24T07:43:14;5.77;;;4.90;;
19780;SDS011;10050;55.492;13.506;2023-06-24T07:45:39;5.80;;;4.73;;
19780;SDS011;10050;55.492;13.506;2023-06-24T07:48:05;6.10;;;4.80;;
19780;SDS011;10050;55.492;13.506;2023-06-24T07:50:32;5.87;;;4.50;;
19780;SDS011;10050;55.492;13.506;2023-06-24T07:52:59;4.90;;;4.27;;
19780;SDS011;10050;55.492;13.506;2023-06-24T07:55:24;5.33;;;4.80;;
19780;SDS011;10050;55.492;13.506;2023-06-24T07:57:50;6.20;;;4.17;;
19780;SDS011;10050;55.492;13.506;2023-06-24T08:00:15;4.47;;;4.10;;
19780;SDS011;10050;55.492;13.506;2023-06-24T08:02:42;4.67;;;4.07;;
19780;SDS011;10050;55.492;13.506;2023-06-24T08:05:08;8.47;;;4.87;;
19780;SDS011;10050;55.492;13.506;2023-06-24T08:07:37;5.73;;;4.07;;
19780;SDS011;10050;55.492;13.506;2023-06-24T08:10:03;6.50;;;4.50;;
19780;SDS011;10050;55.492;13.506;2023-06-24T08:12:29;5.33;;;4.43;;
19780;SDS011;10050;55.492;13.506;2023-06-24T08:14:54;7.97;;;4.73;;
19780;SDS011;10050;55.492;13.506;2023-06-24T08:17:20;6.90;;;4.40;;
19780;SDS011;10050;55.492;13.506;2023-06-24T08:19:45;5.17;;;4.20;;
19780;SDS011;10050;55.492;13.506;2023-06-24T08:22:11;4.57;;;4.27;;
19780;SDS011;10050;55.492;13.506;2023-06-24T08:24:37;5.43;;;4.03;;
19780;SDS011;10050;55.492;13.506;2023-06-24T08:27:04;4.73;;;4.10;;
19780;SDS011;10050;55.492;13.506;2023-06-24T08:29:30;4.67;;;4.20;;
19780;SDS011;10050;55.492;13.506;2023-06-24T08:31:55;4.80;;;4.40;;
19780;SDS011;10050;55.492;13.506;2023-06-24T08:34:21;4.73;;;3.60;;
19780;SDS011;10050;55.492;13.506;2023-06-24T08:36:47;6.10;;;3.90;;
19780;SDS011;10050;55.492;13.506;2023-06-24T08:39:12;5.93;;;3.83;;
19780;SDS011;10050;55.492;13.506;2023-06-24T08:41:38;4.27;;;3.80;;
19780;SDS011;10050;55.492;13.506;2023-06-24T08:44:03;3.83;;;3.53;;
19780;SDS011;10050;55.492;13.506;2023-06-24T08:46:29;4.53;;;3.73;;
19780;SDS011;10050;55.492;13.506;2023-06-24T08:52:06;5.43;;;3.97;;
19780;SDS011;10050;55.492;13.506;2023-06-24T08:54:36;6.10;;;4.27;;
19780;SDS011;10050;55.492;13.506;2023-06-24T08:57:04;4.47;;;4.07;;
19780;SDS011;10050;55.492;13.506;2023-06-24T08:59:31;4.33;;;3.60;;
19780;SDS011;10050;55.492;13.506;2023-06-24T09:01:58;4.40;;;4.03;;
19780;SDS011;10050;55.492;13.506;2023-06-24T09:04:24;3.83;;;3.50;;
19780;SDS011;10050;55.492;13.506;2023-06-24T09:06:49;5.43;;;3.60;;
19780;SDS011;10050;55.492;13.506;2023-06-24T09:09:21;4.53;;;3.97;;
19780;SDS011;10050;55.492;13.506;2023-06-24T09:12:05;4.50;;;3.70;;
19780;SDS011;10050;55.492;13.506;2023-06-24T09:14:36;5.50;;;3.77;;
19780;SDS011;10050;55.492;13.506;2023-06-24T09:17:02;4.00;;;3.60;;
19780;SDS011;10050;55.492;13.506;2023-06-24T09:19:29;6.43;;;3.87;;
19780;SDS011;10050;55.492;13.506;2023-06-24T09:22:04;4.40;;;4.00;;
19780;SDS011;10050;55.492;13.506;2023-06-24T09:24:32;4.23;;;3.83;;
19780;SDS011;10050;55.492;13.506;2023-06-24T09:27:02;4.13;;;3.73;;
19780;SDS011;10050;55.492;13.506;2023-06-24T09:29:32;4.57;;;4.17;;
19780;SDS011;10050;55.492;13.506;2023-06-24T09:31:58;3.70;;;3.37;;
19780;SDS011;10050;55.492;13.506;2023-06-24T09:34:25;4.20;;;3.40;;
19780;SDS011;10050;55.492;13.506;2023-06-24T09:36:54;4.00;;;3.70;;
19780;SDS011;10050;55.492;13.506;2023-06-24T09:39:21;3.70;;;3.40;;
19780;SDS011;10050;55.492;13.506;2023-06-24T09:41:52;3.27;;;2.97;;
19780;SDS011;10050;55.492;13.506;2023-06-24T09:44:18;3.57;;;3.27;;
19780;SDS011;10050;55.492;13.506;2023-06-24T09:46:44;5.10;;;3.67;;
19780;SDS011;10050;55.492;13.506;2023-06-24T09:49:10;4.20;;;3.80;;
19780;SDS011;10050;55.492;13.506;2023-06-24T09:51:40;7.27;;;4.07;;
19780;SDS011;10050;55.492;13.506;2023-06-24T09:54:09;4.60;;;4.07;;
19780;SDS011;10050;55.492;13.506;2023-06-24T09:56:36;5.27;;;4.03;;
19780;SDS011;10050;55.492;13.506;2023-06-24T09:59:04;8.10;;;3.90;;
19780;SDS011;10050;55.492;13.506;2023-06-24T10:01:31;4.93;;;3.50;;
19780;SDS011;10050;55.492;13.506;2023-06-24T10:04:02;3.67;;;3.37;;
19780;SDS011;10050;55.492;13.506;2023-06-24T10:06:29;5.00;;;3.53;;
19780;SDS011;10050;55.492;13.506;2023-06-24T10:08:56;5.43;;;4.17;;
19780;SDS011;10050;55.492;13.506;2023-06-24T10:11:22;6.93;;;3.43;;
19780;SDS011;10050;55.492;13.506;2023-06-24T10:13:48;4.90;;;3.50;;
19780;SDS011;10050;55.492;13.506;2023-06-24T10:16:14;4.10;;;3.30;;
19780;SDS011;10050;55.492;13.506;2023-06-24T10:18:40;3.63;;;3.10;;
19780;SDS011;10050;55.492;13.506;2023-06-24T10:21:09;3.80;;;3.07;;
19780;SDS011;10050;55.492;13.506;2023-06-24T10:26:29;5.03;;;2.93;;
19780;SDS011;10050;55.492;13.506;2023-06-24T10:29:16;4.67;;;3.27;;
19780;SDS011;10050;55.492;13.506;2023-06-24T10:31:51;4.70;;;3.30;;
19780;SDS011;10050;55.492;13.506;2023-06-24T10:37:33;3.90;;;2.80;;
19780;SDS011;10050;55.492;13.506;2023-06-24T10:42:28;3.07;;;2.67;;
19780;SDS011;10050;55.492;13.506;2023-06-24T10:47:41;3.57;;;2.87;;
19780;SDS011;10050;55.492;13.506;2023-06-24T10:50:08;2.50;;;2.30;;
19780;SDS011;10050;55.492;13.506;2023-06-24T10:52:39;4.33;;;2.90;;
19780;SDS011;10050;55.492;13.506;2023-06-24T10:55:06;3.50;;;2.50;;
19780;SDS011;10050;55.492;13.506;2023-06-24T10:57:32;16.60;;;3.33;;
19780;SDS011;10050;55.492;13.506;2023-06-24T10:59:58;3.37;;;3.00;;
19780;SDS011;10050;55.492;13.506;2023-06-24T11:02:25;5.13;;;2.77;;
19780;SDS011;10050;55.492;13.506;2023-06-24T11:04:52;3.53;;;2.57;;
19780;SDS011;10050;55.492;13.506;2023-06-24T11:07:25;3.97;;;2.70;;
19780;SDS011;10050;55.492;13.506;2023-06-24T11:10:01;4.17;;;2.93;;
19780;SDS011;10050;55.492;13.506;2023-06-24T11:12:28;2.90;;;2.60;;
19780;SDS011;10050;55.492;13.506;2023-06-24T11:14:58;4.40;;;2.40;;
19780;SDS011;10050;55.492;13.506;2023-06-24T11:17:25;3.93;;;2.43;;
19780;SDS011;10050;55.492;13.506;2023-06-24T11:19:55;5.57;;;2.97;;
19780;SDS011;10050;55.492;13.506;2023-06-24T11:22:22;2.50;;;2.30;;
19780;SDS011;10050;55.492;13.506;2023-06-24T11:24:49;2.30;;;2.20;;
19780;SDS011;10050;55.492;13.506;2023-06-24T11:27:15;3.67;;;2.30;;
19780;SDS011;10050;55.492;13.506;2023-06-24T11:29:41;2.93;;;2.20;;
19780;SDS011;10050;55.492;13.506;2023-06-24T11:32:07;3.30;;;2.37;;
19780;SDS011;10050;55.492;13.506;2023-06-24T11:34:33;2.83;;;2.27;;
19780;SDS011;10050;55.492;13.506;2023-06-24T11:37:12;2.47;;;2.00;;
19780;SDS011;10050;55.492;13.506;2023-06-24T11:39:39;4.83;;;2.37;;
19780;SDS011;10050;55.492;13.506;2023-06-24T11:42:07;2.60;;;2.40;;
19780;SDS011;10050;55.492;13.506;2023-06-24T11:44:34;2.00;;;1.87;;
19780;SDS011;10050;55.492;13.506;2023-06-24T11:47:06;3.83;;;2.27;;
19780;SDS011;10050;55.492;13.506;2023-06-24T11:49:52;2.50;;;2.30;;
19780;SDS011;10050;55.492;13.506;2023-06-24T11:52:27;2.77;;;2.27;;
19780;SDS011;10050;55.492;13.506;2023-06-24T11:54:59;2.40;;;2.20;;
19780;SDS011;10050;55.492;13.506;2023-06-24T12:00:26;3.00;;;2.20;;
19780;SDS011;10050;55.492;13.506;2023-06-24T12:02:56;3.50;;;2.20;;
19780;SDS011;10050;55.492;13.506;2023-06-24T12:05:24;3.60;;;2.03;;
19780;SDS011;10050;55.492;13.506;2023-06-24T12:07:56;3.27;;;2.33;;
19780;SDS011;10050;55.492;13.506;2023-06-24T12:10:23;2.23;;;2.03;;
19780;SDS011;10050;55.492;13.506;2023-06-24T12:12:49;3.97;;;2.10;;
19780;SDS011;10050;55.492;13.506;2023-06-24T12:15:15;3.40;;;2.07;;
19780;SDS011;10050;55.492;13.506;2023-06-24T12:17:41;6.67;;;2.70;;
19780;SDS011;10050;55.492;13.506;2023-06-24T12:20:06;3.37;;;2.50;;
19780;SDS011;10050;55.492;13.506;2023-06-24T12:22:33;21.67;;;3.20;;
19780;SDS011;10050;55.492;13.506;2023-06-24T12:24:58;31.60;;;4.10;;
19780;SDS011;10050;55.492;13.506;2023-06-24T12:27:24;75.70;;;7.33;;
19780;SDS011;10050;55.492;13.506;2023-06-24T12:29:49;12.53;;;3.23;;
19780;SDS011;10050;55.492;13.506;2023-06-24T12:32:15;23.73;;;3.13;;
19780;SDS011;10050;55.492;13.506;2023-06-24T12:34:40;5.93;;;2.97;;
19780;SDS011;10050;55.492;13.506;2023-06-24T12:37:06;5.67;;;2.60;;
19780;SDS011;10050;55.492;13.506;2023-06-24T12:39:32;3.67;;;3.00;;
19780;SDS011;10050;55.492;13.506;2023-06-24T12:41:57;3.27;;;2.60;;
19780;SDS011;10050;55.492;13.506;2023-06-24T12:44:23;5.33;;;2.37;;
19780;SDS011;10050;55.492;13.506;2023-06-24T12:46:48;9.17;;;3.17;;
19780;SDS011;10050;55.492;13.506;2023-06-24T12:49:14;11.20;;;3.17;;
19780;SDS011;10050;55.492;13.506;2023-06-24T12:51:39;3.33;;;2.60;;
19780;SDS011;10050;55.492;13.506;2023-06-24T12:54:05;2.53;;;2.33;;
19780;SDS011;10050;55.492;13.506;2023-06-24T12:56:31;7.60;;;3.00;;
19780;SDS011;10050;55.492;13.506;2023-06-24T12:58:56;25.03;;;5.23;;
19780;SDS011;10050;55.492;13.506;2023-06-24T13:01:22;31.50;;;5.03;;
19780;SDS011;10050;55.492;13.506;2023-06-24T13:03:47;9.97;;;3.03;;
19780;SDS011;10050;55.492;13.506;2023-06-24T13:06:13;4.33;;;2.70;;
19780;SDS011;10050;55.492;13.506;2023-06-24T13:08:39;3.60;;;2.43;;
19780;SDS011;10050;55.492;13.506;2023-06-24T13:11:04;2.40;;;2.20;;
19780;SDS011;10050;55.492;13.506;2023-06-24T13:13:30;2.30;;;2.10;;
19780;SDS011;10050;55.492;13.506;2023-06-24T13:15:56;2.93;;;2.40;;
19780;SDS011;10050;55.492;13.506;2023-06-24T13:18:21;2.40;;;2.20;;
19780;SDS011;10050;55.492;13.506;2023-06-24T13:20:47;2.60;;;2.30;;
19780;SDS011;10050;55.492;13.506;2023-06-24T13:23:12;4.47;;;2.07;;
19780;SDS011;10050;55.492;13.506;2023-06-24T13:25:38;2.23;;;2.03;;
19780;SDS011;10050;55.492;13.506;2023-06-24T13:28:05;2.90;;;2.27;;
19780;SDS011;10050;55.492;13.506;2023-06-24T13:30:31;2.93;;;2.13;;
19780;SDS011;10050;55.492;13.506;2023-06-24T13:32:57;3.17;;;2.57;;
19780;SDS011;10050;55.492;13.506;2023-06-24T13:35:22;2.67;;;1.93;;
19780;SDS011;10050;55.492;13.506;2023-06-24T13:37:48;2.47;;;2.27;;
19780;SDS011;10050;55.492;13.506;2023-06-24T13:40:14;3.73;;;2.10;;
19780;SDS011;10050;55.492;13.506;2023-06-24T13:42:39;2.40;;;2.20;;
19780;SDS011;10050;55.492;13.506;2023-06-24T13:45:05;2.70;;;1.93;;
19780;SDS011;10050;55.492;13.506;2023-06-24T13:47:31;2.47;;;1.97;;
19780;SDS011;10050;55.492;13.506;2023-06-24T13:49:57;3.83;;;2.23;;
19780;SDS011;10050;55.492;13.506;2023-06-24T13:52:24;1.90;;;1.80;;
19780;SDS011;10050;55.492;13.506;2023-06-24T13:54:51;2.67;;;2.00;;
19780;SDS011;10050;55.492;13.506;2023-06-24T13:57:16;5.13;;;2.03;;
19780;SDS011;10050;55.492;13.506;2023-06-24T13:59:42;3.93;;;2.30;;
19780;SDS011;10050;55.492;13.506;2023-06-24T14:02:08;2.43;;;2.23;;
19780;SDS011;10050;55.492;13.506;2023-06-24T14:04:34;1.83;;;1.73;;
19780;SDS011;10050;55.492;13.506;2023-06-24T14:07:00;2.50;;;2.30;;
19780;SDS011;10050;55.492;13.506;2023-06-24T14:09:27;3.43;;;2.20;;
19780;SDS011;10050;55.492;13.506;2023-06-24T14:11:53;2.30;;;2.10;;
19780;SDS011;10050;55.492;13.506;2023-06-24T14:14:20;3.73;;;2.67;;
19780;SDS011;10050;55.492;13.506;2023-06-24T14:16:46;7.47;;;3.00;;
19780;SDS011;10050;55.492;13.506;2023-06-24T14:19:12;3.60;;;2.20;;
19780;SDS011;10050;55.492;13.506;2023-06-24T14:21:38;3.30;;;2.30;;
19780;SDS011;10050;55.492;13.506;2023-06-24T14:24:04;3.93;;;2.20;;
19780;SDS011;10050;55.492;13.506;2023-06-24T14:26:32;3.50;;;2.10;;
19780;SDS011;10050;55.492;13.506;2023-06-24T14:28:57;2.07;;;1.90;;
19780;SDS011;10050;55.492;13.506;2023-06-24T14:31:23;2.40;;;1.90;;
19780;SDS011;10050;55.492;13.506;2023-06-24T14:33:49;2.60;;;2.20;;
19780;SDS011;10050;55.492;13.506;2023-06-24T14:36:14;2.30;;;2.10;;
19780;SDS011;10050;55.492;13.506;2023-06-24T14:38:40;2.33;;;2.13;;
19780;SDS011;10050;55.492;13.506;2023-06-24T14:41:07;2.33;;;1.90;;
19780;SDS011;10050;55.492;13.506;2023-06-24T14:43:33;2.87;;;2.23;;
19780;SDS011;10050;55.492;13.506;2023-06-24T14:45:59;1.87;;;1.77;;
19780;SDS011;10050;55.492;13.506;2023-06-24T14:48:25;2.20;;;2.00;;
19780;SDS011;10050;55.492;13.506;2023-06-24T14:50:50;2.83;;;1.97;;
19780;SDS011;10050;55.492;13.506;2023-06-24T14:53:16;2.70;;;2.33;;
19780;SDS011;10050;55.492;13.506;2023-06-24T14:55:41;4.87;;;2.40;;
19780;SDS011;10050;55.492;13.506;2023-06-24T14:58:07;2.63;;;2.37;;
19780;SDS011;10050;55.492;13.506;2023-06-24T15:00:32;2.47;;;2.27;;
19780;SDS011;10050;55.492;13.506;2023-06-24T15:02:58;3.60;;;2.40;;